DLH865 ENGM-EDDF
Flight info
| Callsign | DLH865 |
|---|---|
| Flight time | 1h 40m |
| Altitude | 37000 |
| Route | VIPPA1C VIPPA DCT RAXLU DCT RIMET T157 KERAX KERAX5A |
| Aircraft | A320/M-SDE3FGHIRWY/LB1 |
Departure
| Time | 2026-05-04 16:33 |
|---|---|
| Airport | Oslo-Gardermoen International Airport (ENGM) |
Arrival
| Time | 2026-05-04 18:13 |
|---|---|
| Airport | Frankfurt Main Airport (EDDF) |
| Time | Latitude | Longitude | Altitude | Speed | Heading |
|---|---|---|---|---|---|
| 2026-05-04 16:02 | 60.19720 | 11.10006 | 691 ft | 0 kts | 106° |
| 2026-05-04 16:22 | 60.19728 | 11.09949 | 685 ft | 3 kts | 106° |
| 2026-05-04 16:22 | 60.19746 | 11.09831 | 684 ft | 3 kts | 102° |
| 2026-05-04 16:23 | 60.19730 | 11.09779 | 684 ft | 3 kts | 16° |
| 2026-05-04 16:24 | 60.19813 | 11.09827 | 689 ft | 3 kts | 16° |
| 2026-05-04 16:25 | 60.19851 | 11.09849 | 686 ft | 0 kts | 16° |
| 2026-05-04 16:27 | 60.19864 | 11.09856 | 688 ft | 6 kts | 15° |
| 2026-05-04 16:28 | 60.19976 | 11.09921 | 691 ft | 6 kts | 15° |
| 2026-05-04 16:28 | 60.20018 | 11.10199 | 691 ft | 12 kts | 106° |
| 2026-05-04 16:29 | 60.19896 | 11.11056 | 684 ft | 18 kts | 106° |
| 2026-05-04 16:30 | 60.19919 | 11.11569 | 691 ft | 20 kts | 16° |
| 2026-05-04 16:31 | 60.20139 | 11.11697 | 691 ft | 14 kts | 16° |
| 2026-05-04 16:31 | 60.20109 | 11.12158 | 689 ft | 16 kts | 133° |
| 2026-05-04 16:32 | 60.19160 | 11.11695 | 688 ft | 126 kts | 196° |
| 2026-05-04 16:33 | 60.17181 | 11.10537 | 1798 ft | 150 kts | 203° |
| 2026-05-04 16:33 | 60.14969 | 11.09240 | 2779 ft | 187 kts | 203° |
| 2026-05-04 16:34 | 60.12091 | 11.07951 | 3572 ft | 239 kts | 192° |
| 2026-05-04 16:34 | 60.10381 | 11.07553 | 4288 ft | 254 kts | 191° |
| 2026-05-04 16:35 | 60.05043 | 11.06081 | 7262 ft | 258 kts | 205° |
| 2026-05-04 16:35 | 59.99867 | 11.02341 | 9981 ft | 275 kts | 205° |
| 2026-05-04 16:36 | 59.97991 | 11.00959 | 10315 ft | 299 kts | 205° |
| 2026-05-04 16:36 | 59.93913 | 10.97985 | 11658 ft | 319 kts | 206° |
| 2026-05-04 16:37 | 59.89681 | 10.94946 | 13317 ft | 328 kts | 207° |
| 2026-05-04 16:37 | 59.87522 | 10.93397 | 14039 ft | 331 kts | 207° |
| 2026-05-04 16:37 | 59.83174 | 10.90288 | 15671 ft | 333 kts | 209° |
| 2026-05-04 16:38 | 59.78819 | 10.87186 | 17313 ft | 333 kts | 211° |
| 2026-05-04 16:39 | 59.72239 | 10.82488 | 19301 ft | 339 kts | 211° |
| 2026-05-04 16:39 | 59.67740 | 10.79279 | 20402 ft | 348 kts | 211° |
| 2026-05-04 16:40 | 59.63132 | 10.76009 | 21518 ft | 355 kts | 211° |
| 2026-05-04 16:40 | 59.58422 | 10.72692 | 22603 ft | 363 kts | 211° |
| 2026-05-04 16:41 | 59.53572 | 10.69495 | 23601 ft | 379 kts | 204° |
| 2026-05-04 16:41 | 59.45632 | 10.66624 | 24903 ft | 391 kts | 202° |
| 2026-05-04 16:42 | 59.37490 | 10.63721 | 26068 ft | 401 kts | 200° |
| 2026-05-04 16:43 | 59.31962 | 10.61761 | 26874 ft | 406 kts | 200° |
| 2026-05-04 16:43 | 59.26359 | 10.59784 | 27922 ft | 412 kts | 200° |
| 2026-05-04 16:43 | 59.23527 | 10.58786 | 28302 ft | 415 kts | 200° |
| 2026-05-04 16:44 | 59.12011 | 10.54724 | 29644 ft | 426 kts | 199° |
| 2026-05-04 16:45 | 59.06463 | 10.51296 | 30217 ft | 412 kts | 216° |
| 2026-05-04 16:46 | 59.00355 | 10.40432 | 31003 ft | 394 kts | 241° |
| 2026-05-04 16:46 | 58.97245 | 10.31629 | 31626 ft | 399 kts | 236° |
| 2026-05-04 16:47 | 58.92773 | 10.25015 | 32448 ft | 418 kts | 211° |
| 2026-05-04 16:47 | 58.86934 | 10.22896 | 33143 ft | 441 kts | 187° |
| 2026-05-04 16:48 | 58.77751 | 10.23041 | 34292 ft | 438 kts | 187° |
| 2026-05-04 16:48 | 58.74702 | 10.23093 | 34599 ft | 438 kts | 187° |
| 2026-05-04 16:49 | 58.69631 | 10.23166 | 35086 ft | 438 kts | 187° |
| 2026-05-04 16:49 | 58.63531 | 10.23243 | 35633 ft | 439 kts | 187° |
| 2026-05-04 16:50 | 58.57418 | 10.23312 | 36086 ft | 440 kts | 187° |
| 2026-05-04 16:50 | 58.51294 | 10.23378 | 36585 ft | 440 kts | 187° |
| 2026-05-04 16:51 | 58.45160 | 10.23448 | 36816 ft | 439 kts | 187° |
| 2026-05-04 16:51 | 58.42106 | 10.23480 | 36813 ft | 439 kts | 187° |
| 2026-05-04 16:52 | 58.29912 | 10.23624 | 36824 ft | 438 kts | 187° |
| 2026-05-04 16:53 | 58.20763 | 10.23721 | 36836 ft | 438 kts | 187° |
| 2026-05-04 16:54 | 58.08552 | 10.23856 | 36856 ft | 439 kts | 187° |
| 2026-05-04 16:55 | 57.90223 | 10.24063 | 36868 ft | 439 kts | 186° |
| 2026-05-04 16:56 | 57.74942 | 10.24246 | 36851 ft | 440 kts | 186° |
| 2026-05-04 16:57 | 57.65759 | 10.24350 | 36875 ft | 440 kts | 186° |
| 2026-05-04 16:58 | 57.53514 | 10.24481 | 36892 ft | 440 kts | 186° |
| 2026-05-04 17:00 | 57.35177 | 10.24669 | 36928 ft | 438 kts | 185° |
| 2026-05-04 17:01 | 57.19945 | 10.24847 | 36926 ft | 437 kts | 185° |
| 2026-05-04 17:02 | 57.07786 | 10.24970 | 36939 ft | 437 kts | 185° |
| 2026-05-04 17:03 | 56.98666 | 10.25071 | 36949 ft | 437 kts | 185° |
| 2026-05-04 17:03 | 56.89551 | 10.25165 | 36925 ft | 437 kts | 184° |
| 2026-05-04 17:04 | 56.77395 | 10.25303 | 36963 ft | 437 kts | 184° |
| 2026-05-04 17:05 | 56.65235 | 10.25418 | 36933 ft | 437 kts | 184° |
| 2026-05-04 17:06 | 56.56098 | 10.25517 | 36941 ft | 438 kts | 184° |
| 2026-05-04 17:07 | 56.47979 | 10.25607 | 36951 ft | 439 kts | 184° |
| 2026-05-04 17:07 | 56.40843 | 10.25666 | 36938 ft | 439 kts | 184° |
| 2026-05-04 17:08 | 56.31677 | 10.25760 | 36949 ft | 439 kts | 184° |
| 2026-05-04 17:09 | 56.25559 | 10.25833 | 36962 ft | 440 kts | 184° |
| 2026-05-04 17:09 | 56.19438 | 10.25899 | 36970 ft | 440 kts | 184° |
| 2026-05-04 17:10 | 56.04142 | 10.26056 | 36967 ft | 439 kts | 184° |
| 2026-05-04 17:11 | 55.98034 | 10.26125 | 36965 ft | 439 kts | 184° |
| 2026-05-04 17:12 | 55.88879 | 10.26218 | 36962 ft | 438 kts | 184° |
| 2026-05-04 17:13 | 55.73695 | 10.26364 | 36970 ft | 437 kts | 184° |
| 2026-05-04 17:14 | 55.61539 | 10.26488 | 36968 ft | 436 kts | 184° |
| 2026-05-04 17:15 | 55.52433 | 10.26581 | 36970 ft | 436 kts | 184° |
| 2026-05-04 17:16 | 55.40287 | 10.26683 | 36971 ft | 436 kts | 184° |
| 2026-05-04 17:17 | 55.28148 | 10.26815 | 36974 ft | 436 kts | 184° |
| 2026-05-04 17:18 | 55.16041 | 10.26931 | 36989 ft | 435 kts | 184° |
| 2026-05-04 17:19 | 55.03946 | 10.27055 | 36985 ft | 434 kts | 184° |
| 2026-05-04 17:20 | 54.91881 | 10.27174 | 37001 ft | 433 kts | 184° |
| 2026-05-04 17:20 | 54.82847 | 10.27257 | 36969 ft | 433 kts | 184° |
| 2026-05-04 17:21 | 54.70813 | 10.27360 | 36993 ft | 432 kts | 185° |
| 2026-05-04 17:22 | 54.64807 | 10.27302 | 37000 ft | 431 kts | 185° |
| 2026-05-04 17:23 | 54.52808 | 10.27024 | 36985 ft | 431 kts | 185° |
| 2026-05-04 17:24 | 54.43806 | 10.26861 | 37000 ft | 431 kts | 185° |
| 2026-05-04 17:25 | 54.31802 | 10.26675 | 37008 ft | 431 kts | 185° |
| 2026-05-04 17:26 | 54.19799 | 10.26468 | 37005 ft | 431 kts | 185° |
| 2026-05-04 17:27 | 54.04818 | 10.26219 | 36978 ft | 430 kts | 185° |
| 2026-05-04 17:28 | 53.92854 | 10.26025 | 36986 ft | 430 kts | 185° |
| 2026-05-04 17:29 | 53.74913 | 10.25715 | 36964 ft | 430 kts | 185° |
| 2026-05-04 17:31 | 53.59930 | 10.25486 | 36978 ft | 431 kts | 185° |
| 2026-05-04 17:32 | 53.45980 | 10.25247 | 36992 ft | 429 kts | 185° |
| 2026-05-04 17:33 | 53.37038 | 10.25108 | 36631 ft | 427 kts | 186° |
| 2026-05-04 17:33 | 53.34071 | 10.25067 | 35970 ft | 426 kts | 186° |
| 2026-05-04 17:34 | 53.25264 | 10.24920 | 34958 ft | 418 kts | 187° |
| 2026-05-04 17:34 | 53.22354 | 10.24870 | 34972 ft | 418 kts | 187° |
| 2026-05-04 17:35 | 53.07828 | 10.24629 | 34954 ft | 418 kts | 187° |
| 2026-05-04 17:36 | 53.02018 | 10.24541 | 34950 ft | 418 kts | 187° |
| 2026-05-04 17:36 | 52.96211 | 10.24451 | 34948 ft | 418 kts | 187° |
| 2026-05-04 17:37 | 52.90403 | 10.24351 | 34950 ft | 418 kts | 187° |
| 2026-05-04 17:37 | 52.84590 | 10.24253 | 34947 ft | 418 kts | 187° |
| 2026-05-04 17:38 | 52.78783 | 10.24167 | 34943 ft | 417 kts | 186° |
| 2026-05-04 17:38 | 52.72991 | 10.24085 | 34951 ft | 416 kts | 186° |
| 2026-05-04 17:39 | 52.64309 | 10.23944 | 34950 ft | 416 kts | 186° |
| 2026-05-04 17:39 | 52.58524 | 10.23846 | 34949 ft | 416 kts | 186° |
| 2026-05-04 17:40 | 52.52736 | 10.23751 | 34950 ft | 416 kts | 186° |
| 2026-05-04 17:40 | 52.46953 | 10.23671 | 34953 ft | 416 kts | 186° |
| 2026-05-04 17:41 | 52.41172 | 10.23594 | 34954 ft | 415 kts | 186° |
| 2026-05-04 17:41 | 52.35395 | 10.23505 | 34957 ft | 415 kts | 186° |
| 2026-05-04 17:42 | 52.29610 | 10.23412 | 34955 ft | 415 kts | 186° |
| 2026-05-04 17:42 | 52.23869 | 10.23325 | 34966 ft | 415 kts | 186° |
| 2026-05-04 17:43 | 52.18089 | 10.23234 | 34973 ft | 415 kts | 186° |
| 2026-05-04 17:43 | 52.12305 | 10.23147 | 34980 ft | 415 kts | 186° |
| 2026-05-04 17:44 | 52.06524 | 10.23054 | 34962 ft | 416 kts | 185° |
| 2026-05-04 17:44 | 52.03623 | 10.23010 | 34616 ft | 416 kts | 186° |
| 2026-05-04 17:44 | 52.00733 | 10.22964 | 34198 ft | 415 kts | 186° |
| 2026-05-04 17:45 | 51.97851 | 10.22920 | 33741 ft | 414 kts | 186° |
| 2026-05-04 17:45 | 51.94968 | 10.22874 | 33245 ft | 414 kts | 186° |
| 2026-05-04 17:45 | 51.92083 | 10.22821 | 32766 ft | 415 kts | 186° |
| 2026-05-04 17:45 | 51.89186 | 10.22769 | 32285 ft | 417 kts | 185° |
| 2026-05-04 17:46 | 51.86292 | 10.22721 | 31812 ft | 418 kts | 185° |
| 2026-05-04 17:46 | 51.83381 | 10.22675 | 31356 ft | 417 kts | 185° |
| 2026-05-04 17:46 | 51.80485 | 10.22632 | 30973 ft | 416 kts | 185° |
| 2026-05-04 17:46 | 51.77598 | 10.22590 | 30603 ft | 414 kts | 185° |
| 2026-05-04 17:47 | 51.74726 | 10.22552 | 30234 ft | 412 kts | 185° |
| 2026-05-04 17:47 | 51.71869 | 10.22512 | 29815 ft | 410 kts | 185° |
| 2026-05-04 17:47 | 51.69020 | 10.22474 | 29395 ft | 408 kts | 185° |
| 2026-05-04 17:47 | 51.66190 | 10.22434 | 28975 ft | 406 kts | 185° |
| 2026-05-04 17:48 | 51.63374 | 10.22391 | 28562 ft | 403 kts | 185° |
| 2026-05-04 17:48 | 51.60574 | 10.22347 | 28153 ft | 401 kts | 185° |
| 2026-05-04 17:48 | 51.57790 | 10.22303 | 27737 ft | 400 kts | 185° |
| 2026-05-04 17:48 | 51.55009 | 10.22263 | 27343 ft | 398 kts | 185° |
| 2026-05-04 17:49 | 51.52243 | 10.22225 | 26952 ft | 396 kts | 185° |
| 2026-05-04 17:49 | 51.49494 | 10.22185 | 26568 ft | 395 kts | 184° |
| 2026-05-04 17:49 | 51.46756 | 10.22142 | 26189 ft | 393 kts | 184° |
| 2026-05-04 17:49 | 51.44031 | 10.22099 | 25819 ft | 391 kts | 184° |
| 2026-05-04 17:50 | 51.41320 | 10.22062 | 25447 ft | 389 kts | 184° |
| 2026-05-04 17:50 | 51.38624 | 10.22025 | 25088 ft | 386 kts | 184° |
| 2026-05-04 17:50 | 51.35940 | 10.21985 | 24946 ft | 385 kts | 184° |
| 2026-05-04 17:50 | 51.33251 | 10.21945 | 24983 ft | 388 kts | 184° |
| 2026-05-04 17:51 | 51.30551 | 10.21896 | 24988 ft | 388 kts | 184° |
| 2026-05-04 17:51 | 51.27857 | 10.21834 | 24766 ft | 384 kts | 186° |
| 2026-05-04 17:51 | 51.25259 | 10.21159 | 24232 ft | 375 kts | 201° |
| 2026-05-04 17:51 | 51.22913 | 10.19428 | 24012 ft | 373 kts | 210° |
| 2026-05-04 17:52 | 51.20641 | 10.17548 | 23976 ft | 374 kts | 210° |
| 2026-05-04 17:52 | 51.18323 | 10.15642 | 23981 ft | 375 kts | 209° |
| 2026-05-04 17:52 | 51.16004 | 10.13742 | 23984 ft | 375 kts | 209° |
| 2026-05-04 17:52 | 51.13683 | 10.11839 | 23660 ft | 374 kts | 209° |
| 2026-05-04 17:53 | 51.11373 | 10.09946 | 23179 ft | 373 kts | 209° |
| 2026-05-04 17:53 | 51.09073 | 10.08058 | 22689 ft | 371 kts | 209° |
| 2026-05-04 17:53 | 51.06788 | 10.06181 | 22205 ft | 368 kts | 209° |
| 2026-05-04 17:53 | 51.04522 | 10.04321 | 21738 ft | 365 kts | 209° |
| 2026-05-04 17:54 | 51.02273 | 10.02477 | 21276 ft | 363 kts | 209° |
| 2026-05-04 17:54 | 51.00037 | 10.00641 | 20817 ft | 360 kts | 209° |
| 2026-05-04 17:54 | 50.97819 | 9.98820 | 20369 ft | 358 kts | 208° |
| 2026-05-04 17:54 | 50.95614 | 9.97014 | 19921 ft | 355 kts | 208° |
| 2026-05-04 17:55 | 50.93422 | 9.95223 | 19485 ft | 353 kts | 208° |
| 2026-05-04 17:55 | 50.91245 | 9.93451 | 19050 ft | 351 kts | 208° |
| 2026-05-04 17:55 | 50.89082 | 9.91692 | 18626 ft | 349 kts | 208° |
| 2026-05-04 17:55 | 50.86930 | 9.89941 | 18203 ft | 347 kts | 208° |
| 2026-05-04 17:56 | 50.84787 | 9.88200 | 17722 ft | 345 kts | 208° |
| 2026-05-04 17:56 | 50.82654 | 9.86468 | 17250 ft | 344 kts | 208° |
| 2026-05-04 17:56 | 50.80533 | 9.84750 | 16808 ft | 341 kts | 208° |
| 2026-05-04 17:56 | 50.78424 | 9.83044 | 16380 ft | 339 kts | 208° |
| 2026-05-04 17:57 | 50.76329 | 9.81348 | 15968 ft | 337 kts | 208° |
| 2026-05-04 17:57 | 50.74248 | 9.79662 | 15574 ft | 336 kts | 207° |
| 2026-05-04 17:57 | 50.72177 | 9.77988 | 15172 ft | 334 kts | 207° |
| 2026-05-04 17:57 | 50.70112 | 9.76325 | 14787 ft | 332 kts | 207° |
| 2026-05-04 17:58 | 50.68058 | 9.74675 | 14401 ft | 330 kts | 207° |
| 2026-05-04 17:58 | 50.66016 | 9.73027 | 14020 ft | 329 kts | 207° |
| 2026-05-04 17:58 | 50.63985 | 9.71390 | 13627 ft | 327 kts | 207° |
| 2026-05-04 17:58 | 50.61962 | 9.69765 | 13205 ft | 325 kts | 207° |
| 2026-05-04 17:59 | 50.59957 | 9.68157 | 12805 ft | 322 kts | 207° |
| 2026-05-04 17:59 | 50.58101 | 9.66223 | 12420 ft | 320 kts | 221° |
| 2026-05-04 17:59 | 50.54936 | 9.61411 | 11656 ft | 316 kts | 223° |
| 2026-05-04 18:00 | 50.53370 | 9.58992 | 11282 ft | 314 kts | 223° |
| 2026-05-04 18:00 | 50.51785 | 9.56586 | 10907 ft | 312 kts | 222° |
| 2026-05-04 18:00 | 50.50239 | 9.54284 | 10575 ft | 310 kts | 221° |
| 2026-05-04 18:00 | 50.48670 | 9.51979 | 10236 ft | 308 kts | 221° |
| 2026-05-04 18:01 | 50.47110 | 9.49705 | 9900 ft | 305 kts | 221° |
| 2026-05-04 18:01 | 50.45560 | 9.47454 | 9572 ft | 303 kts | 221° |
| 2026-05-04 18:01 | 50.44010 | 9.45210 | 9262 ft | 302 kts | 221° |
| 2026-05-04 18:02 | 50.40928 | 9.40752 | 8638 ft | 301 kts | 221° |
| 2026-05-04 18:02 | 50.39388 | 9.38528 | 8332 ft | 300 kts | 221° |
| 2026-05-04 18:02 | 50.37855 | 9.36314 | 8029 ft | 299 kts | 221° |
| 2026-05-04 18:02 | 50.36324 | 9.34107 | 7724 ft | 299 kts | 222° |
| 2026-05-04 18:03 | 50.34794 | 9.31904 | 7420 ft | 298 kts | 222° |
| 2026-05-04 18:03 | 50.33247 | 9.29676 | 7122 ft | 298 kts | 222° |
| 2026-05-04 18:03 | 50.31722 | 9.27481 | 6973 ft | 298 kts | 222° |
| 2026-05-04 18:03 | 50.30196 | 9.25282 | 6984 ft | 299 kts | 222° |
| 2026-05-04 18:04 | 50.28667 | 9.23080 | 6990 ft | 299 kts | 222° |
| 2026-05-04 18:04 | 50.27143 | 9.20888 | 6983 ft | 297 kts | 221° |
| 2026-05-04 18:04 | 50.24107 | 9.16539 | 6983 ft | 296 kts | 221° |
| 2026-05-04 18:05 | 50.22591 | 9.14370 | 6983 ft | 296 kts | 221° |
| 2026-05-04 18:05 | 50.21077 | 9.12200 | 6983 ft | 296 kts | 221° |
| 2026-05-04 18:05 | 50.19565 | 9.10035 | 6980 ft | 289 kts | 221° |
| 2026-05-04 18:05 | 50.18152 | 9.08014 | 6980 ft | 270 kts | 221° |
| 2026-05-04 18:06 | 50.15552 | 9.04298 | 6716 ft | 239 kts | 222° |
| 2026-05-04 18:06 | 50.14498 | 9.02356 | 6284 ft | 234 kts | 236° |
| 2026-05-04 18:06 | 50.13784 | 9.00098 | 5915 ft | 233 kts | 246° |
| 2026-05-04 18:07 | 50.13217 | 8.97732 | 5643 ft | 231 kts | 248° |
| 2026-05-04 18:07 | 50.12664 | 8.95347 | 5261 ft | 234 kts | 249° |
| 2026-05-04 18:07 | 50.12118 | 8.93000 | 4942 ft | 226 kts | 249° |
| 2026-05-04 18:07 | 50.11591 | 8.90747 | 4648 ft | 217 kts | 248° |
| 2026-05-04 18:08 | 50.11080 | 8.88574 | 4366 ft | 210 kts | 249° |
| 2026-05-04 18:08 | 50.10594 | 8.86503 | 4108 ft | 196 kts | 249° |
| 2026-05-04 18:08 | 50.10138 | 8.84567 | 3833 ft | 185 kts | 249° |
| 2026-05-04 18:08 | 50.09703 | 8.82720 | 3585 ft | 180 kts | 250° |
| 2026-05-04 18:09 | 50.08845 | 8.79081 | 3126 ft | 178 kts | 250° |
| 2026-05-04 18:09 | 50.07993 | 8.75472 | 2645 ft | 177 kts | 251° |
| 2026-05-04 18:10 | 50.07564 | 8.73672 | 2411 ft | 177 kts | 252° |
| 2026-05-04 18:10 | 50.07145 | 8.71872 | 2175 ft | 176 kts | 255° |
| 2026-05-04 18:10 | 50.06926 | 8.70007 | 1964 ft | 174 kts | 265° |
| 2026-05-04 18:10 | 50.06756 | 8.68275 | 1848 ft | 152 kts | 258° |
| 2026-05-04 18:11 | 50.06432 | 8.66776 | 1611 ft | 142 kts | 253° |
| 2026-05-04 18:11 | 50.06106 | 8.65355 | 1335 ft | 138 kts | 253° |
| 2026-05-04 18:11 | 50.05769 | 8.63970 | 1145 ft | 136 kts | 251° |
| 2026-05-04 18:11 | 50.05441 | 8.62597 | 961 ft | 135 kts | 251° |
| 2026-05-04 18:12 | 50.05119 | 8.61236 | 785 ft | 132 kts | 252° |
| 2026-05-04 18:12 | 50.04798 | 8.59893 | 591 ft | 132 kts | 252° |
| 2026-05-04 18:12 | 50.04476 | 8.58557 | 406 ft | 131 kts | 252° |
| 2026-05-04 18:12 | 50.04195 | 8.57361 | 368 ft | 87 kts | 249° |
| 2026-05-04 18:13 | 50.04034 | 8.56690 | 362 ft | 59 kts | 250° |
| 2026-05-04 18:13 | 50.04000 | 8.56306 | 355 ft | 26 kts | 279° |
| 2026-05-04 18:13 | 50.04018 | 8.56146 | 350 ft | 0 kts | 279° |
| 2026-05-04 18:14 | 50.04018 | 8.56143 | 350 ft | 0 kts | 279° |
| 2026-05-04 18:14 | 50.04018 | 8.56140 | 350 ft | 0 kts | 279° |
| 2026-05-04 18:14 | 50.04046 | 8.56101 | 356 ft | 9 kts | 359° |
| 2026-05-04 18:15 | 50.04136 | 8.56278 | 353 ft | 10 kts | 38° |
| 2026-05-04 18:15 | 50.04271 | 8.56222 | 357 ft | 11 kts | 337° |
| 2026-05-04 18:15 | 50.04292 | 8.56110 | 355 ft | 12 kts | 284° |
| 2026-05-04 18:16 | 50.04366 | 8.56043 | 360 ft | 14 kts | 340° |
| 2026-05-04 18:16 | 50.04445 | 8.56086 | 356 ft | 15 kts | 71° |
| 2026-05-04 18:16 | 50.04480 | 8.56233 | 359 ft | 14 kts | 69° |
| 2026-05-04 18:17 | 50.04569 | 8.56453 | 361 ft | 11 kts | 25° |
| 2026-05-04 18:17 | 50.04640 | 8.56504 | 359 ft | 11 kts | 25° |
| 2026-05-04 18:17 | 50.04646 | 8.56632 | 362 ft | 6 kts | 114° |
| 2026-05-04 18:18 | 50.04639 | 8.56657 | 358 ft | 2 kts | 114° |
| 2026-05-04 18:18 | 50.04638 | 8.56662 | 357 ft | 0 kts | 114° |